Fulton Beach, Texas
Current Conditions -  °F | °C
As of 2:53 AM on Friday 31 Oct 2014 (Local Time) from KRKP Reporting Station
Clear Clear  
Wind Chill: 70°   Ceiling: Unl
Heat Index: 70°   Visibility: 10mi
Dew Point: 67°   Wind: 6mph
Humidity: 90%   Direction: 170°S
Pressure: 30.05"   Gusts: NA
Location:  28.2466°N, 96.7984°W
Report Text: KRKP 310753Z AUTO 17005KT 10SM CLR 21/19 A3005 RMK AO2 SLP178 T02110194
Loading
Personal Weather Stations






























Interactive Weather Map
Tropical Storm Tracking
New forecast layout! Learn more

10-Day Weather Forecast

Advertisements
Track Severe Weather on mobile